sensor_id;sensor_type;location;lat;lon;timestamp;P1;durP1;ratioP1;P2;durP2;ratioP2
45354;SDS011;31091;48.758;9.150;2023-01-23T00:02:00;11.32;;;6.75;;
45354;SDS011;31091;48.758;9.150;2023-01-23T00:04:45;14.20;;;8.45;;
45354;SDS011;31091;48.758;9.150;2023-01-23T00:07:31;13.82;;;7.57;;
45354;SDS011;31091;48.758;9.150;2023-01-23T00:10:16;12.07;;;7.15;;
45354;SDS011;31091;48.758;9.150;2023-01-23T00:13:01;14.70;;;8.80;;
45354;SDS011;31091;48.758;9.150;2023-01-23T00:15:47;13.68;;;8.30;;
45354;SDS011;31091;48.758;9.150;2023-01-23T00:18:32;12.00;;;7.22;;
45354;SDS011;31091;48.758;9.150;2023-01-23T00:21:21;13.57;;;7.90;;
45354;SDS011;31091;48.758;9.150;2023-01-23T00:24:08;12.97;;;7.77;;
45354;SDS011;31091;48.758;9.150;2023-01-23T00:26:54;12.98;;;7.13;;
45354;SDS011;31091;48.758;9.150;2023-01-23T00:29:39;16.23;;;9.05;;
45354;SDS011;31091;48.758;9.150;2023-01-23T00:32:25;15.57;;;8.20;;
45354;SDS011;31091;48.758;9.150;2023-01-23T00:35:11;14.43;;;8.23;;
45354;SDS011;31091;48.758;9.150;2023-01-23T00:37:56;11.98;;;7.70;;
45354;SDS011;31091;48.758;9.150;2023-01-23T00:40:41;13.95;;;8.23;;
45354;SDS011;31091;48.758;9.150;2023-01-23T00:43:27;13.07;;;7.60;;
45354;SDS011;31091;48.758;9.150;2023-01-23T00:46:12;13.95;;;8.48;;
45354;SDS011;31091;48.758;9.150;2023-01-23T00:48:57;13.27;;;7.88;;
45354;SDS011;31091;48.758;9.150;2023-01-23T00:51:43;16.50;;;9.05;;
45354;SDS011;31091;48.758;9.150;2023-01-23T00:54:28;13.50;;;7.32;;
45354;SDS011;31091;48.758;9.150;2023-01-23T00:57:14;12.88;;;7.53;;
45354;SDS011;31091;48.758;9.150;2023-01-23T01:00:00;14.18;;;8.40;;
45354;SDS011;31091;48.758;9.150;2023-01-23T01:02:45;13.43;;;8.65;;
45354;SDS011;31091;48.758;9.150;2023-01-23T01:05:31;13.93;;;7.53;;
45354;SDS011;31091;48.758;9.150;2023-01-23T01:08:16;12.65;;;7.15;;
45354;SDS011;31091;48.758;9.150;2023-01-23T01:11:01;12.15;;;7.07;;
45354;SDS011;31091;48.758;9.150;2023-01-23T01:13:46;14.27;;;8.77;;
45354;SDS011;31091;48.758;9.150;2023-01-23T01:16:32;13.02;;;7.90;;
45354;SDS011;31091;48.758;9.150;2023-01-23T01:19:17;12.35;;;7.32;;
45354;SDS011;31091;48.758;9.150;2023-01-23T01:22:03;11.90;;;7.40;;
45354;SDS011;31091;48.758;9.150;2023-01-23T01:24:48;14.32;;;8.25;;
45354;SDS011;31091;48.758;9.150;2023-01-23T01:27:33;12.95;;;7.70;;
45354;SDS011;31091;48.758;9.150;2023-01-23T01:30:19;14.70;;;8.95;;
45354;SDS011;31091;48.758;9.150;2023-01-23T01:33:04;12.90;;;7.65;;
45354;SDS011;31091;48.758;9.150;2023-01-23T01:35:49;14.55;;;8.43;;
45354;SDS011;31091;48.758;9.150;2023-01-23T01:38:34;12.80;;;7.80;;
45354;SDS011;31091;48.758;9.150;2023-01-23T01:41:19;13.60;;;8.13;;
45354;SDS011;31091;48.758;9.150;2023-01-23T01:44:05;14.23;;;7.88;;
45354;SDS011;31091;48.758;9.150;2023-01-23T01:46:50;12.85;;;6.95;;
45354;SDS011;31091;48.758;9.150;2023-01-23T01:49:35;14.23;;;8.10;;
45354;SDS011;31091;48.758;9.150;2023-01-23T01:52:20;11.73;;;7.30;;
45354;SDS011;31091;48.758;9.150;2023-01-23T01:55:06;12.15;;;6.45;;
45354;SDS011;31091;48.758;9.150;2023-01-23T01:57:51;14.80;;;8.25;;
45354;SDS011;31091;48.758;9.150;2023-01-23T02:00:38;12.40;;;8.07;;
45354;SDS011;31091;48.758;9.150;2023-01-23T02:03:23;13.00;;;7.30;;
45354;SDS011;31091;48.758;9.150;2023-01-23T02:06:10;14.85;;;9.32;;
45354;SDS011;31091;48.758;9.150;2023-01-23T02:09:03;14.93;;;8.18;;
45354;SDS011;31091;48.758;9.150;2023-01-23T02:11:49;13.07;;;7.68;;
45354;SDS011;31091;48.758;9.150;2023-01-23T02:14:35;13.45;;;7.38;;
45354;SDS011;31091;48.758;9.150;2023-01-23T02:17:20;11.63;;;6.97;;
45354;SDS011;31091;48.758;9.150;2023-01-23T02:20:14;14.18;;;8.10;;
45354;SDS011;31091;48.758;9.150;2023-01-23T02:25:59;14.55;;;8.00;;
45354;SDS011;31091;48.758;9.150;2023-01-23T02:28:46;13.13;;;8.32;;
45354;SDS011;31091;48.758;9.150;2023-01-23T02:31:32;13.63;;;8.50;;
45354;SDS011;31091;48.758;9.150;2023-01-23T02:34:19;14.45;;;8.27;;
45354;SDS011;31091;48.758;9.150;2023-01-23T02:37:06;15.32;;;8.25;;
45354;SDS011;31091;48.758;9.150;2023-01-23T02:39:52;14.05;;;8.55;;
45354;SDS011;31091;48.758;9.150;2023-01-23T02:42:42;13.50;;;7.68;;
45354;SDS011;31091;48.758;9.150;2023-01-23T02:45:28;14.32;;;8.05;;
45354;SDS011;31091;48.758;9.150;2023-01-23T02:48:15;13.85;;;7.55;;
45354;SDS011;31091;48.758;9.150;2023-01-23T02:51:00;15.65;;;8.65;;
45354;SDS011;31091;48.758;9.150;2023-01-23T02:53:45;13.82;;;8.43;;
45354;SDS011;31091;48.758;9.150;2023-01-23T02:56:31;13.70;;;8.05;;
45354;SDS011;31091;48.758;9.150;2023-01-23T02:59:17;13.60;;;7.65;;
45354;SDS011;31091;48.758;9.150;2023-01-23T03:02:21;15.82;;;8.75;;
45354;SDS011;31091;48.758;9.150;2023-01-23T03:05:07;13.82;;;8.55;;
45354;SDS011;31091;48.758;9.150;2023-01-23T03:07:52;14.00;;;8.10;;
45354;SDS011;31091;48.758;9.150;2023-01-23T03:10:38;14.10;;;9.00;;
45354;SDS011;31091;48.758;9.150;2023-01-23T03:13:23;14.13;;;8.68;;
45354;SDS011;31091;48.758;9.150;2023-01-23T03:16:08;15.32;;;9.60;;
45354;SDS011;31091;48.758;9.150;2023-01-23T03:18:54;15.27;;;8.73;;
45354;SDS011;31091;48.758;9.150;2023-01-23T03:21:41;15.88;;;9.68;;
45354;SDS011;31091;48.758;9.150;2023-01-23T03:24:26;14.65;;;8.63;;
45354;SDS011;31091;48.758;9.150;2023-01-23T03:27:11;15.88;;;8.80;;
45354;SDS011;31091;48.758;9.150;2023-01-23T03:29:57;14.82;;;9.23;;
45354;SDS011;31091;48.758;9.150;2023-01-23T03:32:57;16.08;;;8.68;;
45354;SDS011;31091;48.758;9.150;2023-01-23T03:35:42;15.63;;;9.57;;
45354;SDS011;31091;48.758;9.150;2023-01-23T03:38:28;15.30;;;8.75;;
45354;SDS011;31091;48.758;9.150;2023-01-23T03:41:13;15.75;;;10.20;;
45354;SDS011;31091;48.758;9.150;2023-01-23T03:44:10;14.85;;;9.23;;
45354;SDS011;31091;48.758;9.150;2023-01-23T03:46:55;17.05;;;10.43;;
45354;SDS011;31091;48.758;9.150;2023-01-23T03:49:41;15.27;;;9.48;;
45354;SDS011;31091;48.758;9.150;2023-01-23T03:52:26;14.77;;;7.82;;
45354;SDS011;31091;48.758;9.150;2023-01-23T03:55:11;14.30;;;9.13;;
45354;SDS011;31091;48.758;9.150;2023-01-23T03:57:56;14.90;;;8.93;;
45354;SDS011;31091;48.758;9.150;2023-01-23T04:00:42;18.33;;;10.63;;
45354;SDS011;31091;48.758;9.150;2023-01-23T04:03:27;14.57;;;8.73;;
45354;SDS011;31091;48.758;9.150;2023-01-23T04:06:12;15.30;;;9.48;;
45354;SDS011;31091;48.758;9.150;2023-01-23T04:08:57;14.45;;;8.38;;
45354;SDS011;31091;48.758;9.150;2023-01-23T04:11:43;15.15;;;9.13;;
45354;SDS011;31091;48.758;9.150;2023-01-23T04:14:28;15.57;;;9.18;;
45354;SDS011;31091;48.758;9.150;2023-01-23T04:17:21;16.58;;;10.18;;
45354;SDS011;31091;48.758;9.150;2023-01-23T04:20:06;14.50;;;9.63;;
45354;SDS011;31091;48.758;9.150;2023-01-23T04:22:51;17.75;;;10.23;;
45354;SDS011;31091;48.758;9.150;2023-01-23T04:25:37;17.38;;;10.27;;
45354;SDS011;31091;48.758;9.150;2023-01-23T04:28:22;17.60;;;9.80;;
45354;SDS011;31091;48.758;9.150;2023-01-23T04:31:07;16.38;;;10.07;;
45354;SDS011;31091;48.758;9.150;2023-01-23T04:33:53;15.57;;;9.02;;
45354;SDS011;31091;48.758;9.150;2023-01-23T04:36:38;15.93;;;9.38;;
45354;SDS011;31091;48.758;9.150;2023-01-23T04:39:23;15.15;;;8.85;;
45354;SDS011;31091;48.758;9.150;2023-01-23T04:42:09;15.73;;;10.00;;
45354;SDS011;31091;48.758;9.150;2023-01-23T04:44:55;18.15;;;12.02;;
45354;SDS011;31091;48.758;9.150;2023-01-23T04:47:40;16.17;;;10.32;;
45354;SDS011;31091;48.758;9.150;2023-01-23T04:50:25;16.42;;;10.38;;
45354;SDS011;31091;48.758;9.150;2023-01-23T04:53:11;18.33;;;9.38;;
45354;SDS011;31091;48.758;9.150;2023-01-23T04:55:57;17.15;;;9.98;;
45354;SDS011;31091;48.758;9.150;2023-01-23T04:58:43;17.58;;;10.95;;
45354;SDS011;31091;48.758;9.150;2023-01-23T05:01:29;18.15;;;9.63;;
45354;SDS011;31091;48.758;9.150;2023-01-23T05:04:14;15.65;;;10.82;;
45354;SDS011;31091;48.758;9.150;2023-01-23T05:06:59;14.95;;;9.73;;
45354;SDS011;31091;48.758;9.150;2023-01-23T05:09:44;15.70;;;9.82;;
45354;SDS011;31091;48.758;9.150;2023-01-23T05:12:30;18.63;;;10.25;;
45354;SDS011;31091;48.758;9.150;2023-01-23T05:15:15;14.93;;;9.63;;
45354;SDS011;31091;48.758;9.150;2023-01-23T05:18:01;19.00;;;11.05;;
45354;SDS011;31091;48.758;9.150;2023-01-23T05:20:46;17.27;;;10.68;;
45354;SDS011;31091;48.758;9.150;2023-01-23T05:23:32;19.17;;;10.75;;
45354;SDS011;31091;48.758;9.150;2023-01-23T05:26:17;19.48;;;11.27;;
45354;SDS011;31091;48.758;9.150;2023-01-23T05:29:02;16.60;;;9.77;;
45354;SDS011;31091;48.758;9.150;2023-01-23T05:31:47;14.82;;;8.98;;
45354;SDS011;31091;48.758;9.150;2023-01-23T05:34:33;16.02;;;9.68;;
45354;SDS011;31091;48.758;9.150;2023-01-23T05:37:18;14.20;;;9.32;;
45354;SDS011;31091;48.758;9.150;2023-01-23T05:40:05;15.52;;;10.05;;
45354;SDS011;31091;48.758;9.150;2023-01-23T05:42:52;16.63;;;10.07;;
45354;SDS011;31091;48.758;9.150;2023-01-23T05:45:37;18.23;;;11.10;;
45354;SDS011;31091;48.758;9.150;2023-01-23T05:48:22;16.35;;;10.52;;
45354;SDS011;31091;48.758;9.150;2023-01-23T05:51:07;18.33;;;11.27;;
45354;SDS011;31091;48.758;9.150;2023-01-23T05:53:53;18.05;;;11.15;;
45354;SDS011;31091;48.758;9.150;2023-01-23T05:56:38;18.00;;;11.35;;
45354;SDS011;31091;48.758;9.150;2023-01-23T05:59:23;17.13;;;11.07;;
45354;SDS011;31091;48.758;9.150;2023-01-23T06:02:08;15.85;;;9.98;;
45354;SDS011;31091;48.758;9.150;2023-01-23T06:04:54;20.13;;;11.18;;
45354;SDS011;31091;48.758;9.150;2023-01-23T06:07:39;18.48;;;10.40;;
45354;SDS011;31091;48.758;9.150;2023-01-23T06:10:24;16.08;;;9.80;;
45354;SDS011;31091;48.758;9.150;2023-01-23T06:13:09;19.58;;;11.13;;
45354;SDS011;31091;48.758;9.150;2023-01-23T06:15:55;16.20;;;9.13;;
45354;SDS011;31091;48.758;9.150;2023-01-23T06:18:40;19.73;;;10.73;;
45354;SDS011;31091;48.758;9.150;2023-01-23T06:21:26;15.77;;;9.70;;
45354;SDS011;31091;48.758;9.150;2023-01-23T06:24:11;17.15;;;9.82;;
45354;SDS011;31091;48.758;9.150;2023-01-23T06:26:56;17.58;;;10.18;;
45354;SDS011;31091;48.758;9.150;2023-01-23T06:29:41;18.35;;;10.77;;
45354;SDS011;31091;48.758;9.150;2023-01-23T06:32:27;16.27;;;9.70;;
45354;SDS011;31091;48.758;9.150;2023-01-23T06:35:12;18.13;;;10.60;;
45354;SDS011;31091;48.758;9.150;2023-01-23T06:37:57;16.92;;;9.57;;
45354;SDS011;31091;48.758;9.150;2023-01-23T06:40:42;17.60;;;9.95;;
45354;SDS011;31091;48.758;9.150;2023-01-23T06:43:28;19.95;;;10.68;;
45354;SDS011;31091;48.758;9.150;2023-01-23T06:46:14;17.00;;;9.82;;
45354;SDS011;31091;48.758;9.150;2023-01-23T06:48:59;19.05;;;11.55;;
45354;SDS011;31091;48.758;9.150;2023-01-23T06:51:44;16.85;;;9.73;;
45354;SDS011;31091;48.758;9.150;2023-01-23T06:54:29;20.15;;;11.30;;
45354;SDS011;31091;48.758;9.150;2023-01-23T06:57:15;15.55;;;9.35;;
45354;SDS011;31091;48.758;9.150;2023-01-23T07:00:00;17.92;;;9.57;;
45354;SDS011;31091;48.758;9.150;2023-01-23T07:02:45;20.05;;;11.48;;
45354;SDS011;31091;48.758;9.150;2023-01-23T07:05:31;18.80;;;9.65;;
45354;SDS011;31091;48.758;9.150;2023-01-23T07:08:16;16.80;;;9.52;;
45354;SDS011;31091;48.758;9.150;2023-01-23T07:11:01;17.15;;;10.25;;
45354;SDS011;31091;48.758;9.150;2023-01-23T07:13:48;17.27;;;10.15;;
45354;SDS011;31091;48.758;9.150;2023-01-23T07:16:33;21.05;;;11.52;;
45354;SDS011;31091;48.758;9.150;2023-01-23T07:19:19;19.85;;;11.95;;
45354;SDS011;31091;48.758;9.150;2023-01-23T07:22:05;17.88;;;9.48;;
45354;SDS011;31091;48.758;9.150;2023-01-23T07:24:50;20.50;;;11.90;;
45354;SDS011;31091;48.758;9.150;2023-01-23T07:27:35;19.58;;;10.77;;
45354;SDS011;31091;48.758;9.150;2023-01-23T07:30:20;21.38;;;11.35;;
45354;SDS011;31091;48.758;9.150;2023-01-23T07:33:06;21.88;;;11.18;;
45354;SDS011;31091;48.758;9.150;2023-01-23T07:35:51;19.92;;;10.55;;
45354;SDS011;31091;48.758;9.150;2023-01-23T07:38:36;18.05;;;10.43;;
45354;SDS011;31091;48.758;9.150;2023-01-23T07:41:21;20.63;;;10.45;;
45354;SDS011;31091;48.758;9.150;2023-01-23T07:44:07;19.67;;;11.50;;
45354;SDS011;31091;48.758;9.150;2023-01-23T07:46:52;18.45;;;10.70;;
45354;SDS011;31091;48.758;9.150;2023-01-23T07:49:37;21.77;;;12.77;;
45354;SDS011;31091;48.758;9.150;2023-01-23T07:52:23;25.17;;;14.02;;
45354;SDS011;31091;48.758;9.150;2023-01-23T07:55:08;21.48;;;11.15;;
45354;SDS011;31091;48.758;9.150;2023-01-23T07:57:54;18.73;;;11.38;;
45354;SDS011;31091;48.758;9.150;2023-01-23T08:00:39;18.90;;;10.77;;
45354;SDS011;31091;48.758;9.150;2023-01-23T08:03:25;22.23;;;10.90;;
45354;SDS011;31091;48.758;9.150;2023-01-23T08:06:13;20.48;;;12.18;;
45354;SDS011;31091;48.758;9.150;2023-01-23T08:08:58;20.15;;;12.02;;
45354;SDS011;31091;48.758;9.150;2023-01-23T08:11:43;20.02;;;11.00;;
45354;SDS011;31091;48.758;9.150;2023-01-23T08:14:28;21.10;;;12.27;;
45354;SDS011;31091;48.758;9.150;2023-01-23T08:17:14;22.30;;;11.95;;
45354;SDS011;31091;48.758;9.150;2023-01-23T08:19:59;22.42;;;11.98;;
45354;SDS011;31091;48.758;9.150;2023-01-23T08:22:45;20.50;;;11.52;;
45354;SDS011;31091;48.758;9.150;2023-01-23T08:25:31;22.88;;;13.02;;
45354;SDS011;31091;48.758;9.150;2023-01-23T08:28:16;23.02;;;12.27;;
45354;SDS011;31091;48.758;9.150;2023-01-23T08:31:02;21.75;;;12.77;;
45354;SDS011;31091;48.758;9.150;2023-01-23T08:33:48;21.20;;;11.25;;
45354;SDS011;31091;48.758;9.150;2023-01-23T08:36:33;21.85;;;11.85;;
45354;SDS011;31091;48.758;9.150;2023-01-23T08:39:18;27.00;;;11.60;;
45354;SDS011;31091;48.758;9.150;2023-01-23T08:42:04;18.95;;;11.57;;
45354;SDS011;31091;48.758;9.150;2023-01-23T08:44:49;21.63;;;12.85;;
45354;SDS011;31091;48.758;9.150;2023-01-23T08:47:34;18.35;;;10.50;;
45354;SDS011;31091;48.758;9.150;2023-01-23T08:50:20;21.23;;;11.40;;
45354;SDS011;31091;48.758;9.150;2023-01-23T08:53:05;22.48;;;11.88;;
45354;SDS011;31091;48.758;9.150;2023-01-23T08:55:50;20.98;;;11.75;;
45354;SDS011;31091;48.758;9.150;2023-01-23T08:58:36;21.20;;;11.68;;
45354;SDS011;31091;48.758;9.150;2023-01-23T09:01:22;19.95;;;12.13;;
45354;SDS011;31091;48.758;9.150;2023-01-23T09:04:07;19.23;;;10.20;;
45354;SDS011;31091;48.758;9.150;2023-01-23T09:06:53;18.33;;;10.30;;
45354;SDS011;31091;48.758;9.150;2023-01-23T09:09:38;20.90;;;12.43;;
45354;SDS011;31091;48.758;9.150;2023-01-23T09:12:23;20.15;;;10.63;;
45354;SDS011;31091;48.758;9.150;2023-01-23T09:15:11;20.45;;;10.18;;
45354;SDS011;31091;48.758;9.150;2023-01-23T09:17:58;22.98;;;11.23;;
45354;SDS011;31091;48.758;9.150;2023-01-23T09:20:45;18.08;;;10.48;;
45354;SDS011;31091;48.758;9.150;2023-01-23T09:23:32;17.42;;;9.98;;
45354;SDS011;31091;48.758;9.150;2023-01-23T09:26:17;19.88;;;9.90;;
45354;SDS011;31091;48.758;9.150;2023-01-23T09:29:05;20.33;;;10.55;;
45354;SDS011;31091;48.758;9.150;2023-01-23T09:31:50;18.90;;;9.25;;
45354;SDS011;31091;48.758;9.150;2023-01-23T09:34:36;20.98;;;9.43;;
45354;SDS011;31091;48.758;9.150;2023-01-23T09:37:21;18.30;;;8.15;;
45354;SDS011;31091;48.758;9.150;2023-01-23T09:40:09;19.55;;;8.50;;
45354;SDS011;31091;48.758;9.150;2023-01-23T09:43:05;16.65;;;8.57;;
45354;SDS011;31091;48.758;9.150;2023-01-23T09:48:59;14.68;;;8.52;;
45354;SDS011;31091;48.758;9.150;2023-01-23T09:51:48;15.55;;;8.23;;
45354;SDS011;31091;48.758;9.150;2023-01-23T09:54:46;17.65;;;10.05;;
45354;SDS011;31091;48.758;9.150;2023-01-23T09:57:38;17.80;;;9.05;;
45354;SDS011;31091;48.758;9.150;2023-01-23T10:00:26;24.05;;;10.00;;
45354;SDS011;31091;48.758;9.150;2023-01-23T10:03:13;18.35;;;9.32;;
45354;SDS011;31091;48.758;9.150;2023-01-23T10:08:55;20.70;;;9.52;;
45354;SDS011;31091;48.758;9.150;2023-01-23T10:11:48;14.43;;;8.00;;
45354;SDS011;31091;48.758;9.150;2023-01-23T10:17:47;12.98;;;7.00;;
45354;SDS011;31091;48.758;9.150;2023-01-23T10:20:48;12.13;;;7.13;;
45354;SDS011;31091;48.758;9.150;2023-01-23T10:23:45;16.98;;;8.57;;
45354;SDS011;31091;48.758;9.150;2023-01-23T10:26:38;15.98;;;8.25;;
45354;SDS011;31091;48.758;9.150;2023-01-23T10:29:29;16.13;;;9.27;;
45354;SDS011;31091;48.758;9.150;2023-01-23T10:32:19;14.52;;;8.82;;
45354;SDS011;31091;48.758;9.150;2023-01-23T10:35:13;14.82;;;8.68;;
45354;SDS011;31091;48.758;9.150;2023-01-23T10:38:01;16.45;;;8.48;;
45354;SDS011;31091;48.758;9.150;2023-01-23T10:40:49;16.17;;;8.55;;
45354;SDS011;31091;48.758;9.150;2023-01-23T10:43:53;15.90;;;8.13;;
45354;SDS011;31091;48.758;9.150;2023-01-23T10:46:42;14.98;;;8.43;;
45354;SDS011;31091;48.758;9.150;2023-01-23T10:49:36;18.77;;;8.55;;
45354;SDS011;31091;48.758;9.150;2023-01-23T10:52:37;15.82;;;8.82;;
45354;SDS011;31091;48.758;9.150;2023-01-23T10:58:08;17.35;;;9.82;;
45354;SDS011;31091;48.758;9.150;2023-01-23T11:01:06;18.75;;;9.80;;
45354;SDS011;31091;48.758;9.150;2023-01-23T11:04:16;17.52;;;9.52;;
45354;SDS011;31091;48.758;9.150;2023-01-23T11:09:51;17.90;;;9.13;;
45354;SDS011;31091;48.758;9.150;2023-01-23T11:12:48;16.95;;;8.75;;
45354;SDS011;31091;48.758;9.150;2023-01-23T11:15:34;13.48;;;7.43;;
45354;SDS011;31091;48.758;9.150;2023-01-23T11:18:27;12.73;;;6.93;;
45354;SDS011;31091;48.758;9.150;2023-01-23T11:21:23;14.65;;;8.55;;
45354;SDS011;31091;48.758;9.150;2023-01-23T11:27:14;17.92;;;8.82;;
45354;SDS011;31091;48.758;9.150;2023-01-23T11:32:57;17.40;;;8.98;;
45354;SDS011;31091;48.758;9.150;2023-01-23T11:35:46;22.85;;;10.45;;
45354;SDS011;31091;48.758;9.150;2023-01-23T11:38:39;15.93;;;9.60;;
45354;SDS011;31091;48.758;9.150;2023-01-23T11:41:29;16.95;;;9.57;;
45354;SDS011;31091;48.758;9.150;2023-01-23T11:44:18;18.95;;;10.52;;
45354;SDS011;31091;48.758;9.150;2023-01-23T11:50:02;18.25;;;9.57;;
45354;SDS011;31091;48.758;9.150;2023-01-23T12:01:33;17.67;;;9.57;;
45354;SDS011;31091;48.758;9.150;2023-01-23T12:13:07;18.10;;;9.30;;
45354;SDS011;31091;48.758;9.150;2023-01-23T12:18:48;18.48;;;10.00;;
45354;SDS011;31091;48.758;9.150;2023-01-23T12:21:39;16.48;;;9.32;;
45354;SDS011;31091;48.758;9.150;2023-01-23T12:41:58;22.40;;;10.63;;
45354;SDS011;31091;48.758;9.150;2023-01-23T12:50:50;17.60;;;10.35;;
45354;SDS011;31091;48.758;9.150;2023-01-23T12:53:36;20.30;;;10.00;;
45354;SDS011;31091;48.758;9.150;2023-01-23T12:56:24;18.10;;;9.95;;
45354;SDS011;31091;48.758;9.150;2023-01-23T13:04:52;15.88;;;9.13;;
45354;SDS011;31091;48.758;9.150;2023-01-23T13:13:47;16.27;;;9.23;;
45354;SDS011;31091;48.758;9.150;2023-01-23T13:16:33;18.50;;;9.45;;
45354;SDS011;31091;48.758;9.150;2023-01-23T13:19:29;18.08;;;9.80;;
45354;SDS011;31091;48.758;9.150;2023-01-23T13:22:34;15.93;;;8.55;;
45354;SDS011;31091;48.758;9.150;2023-01-23T13:25:22;16.15;;;8.73;;
45354;SDS011;31091;48.758;9.150;2023-01-23T13:28:31;17.75;;;9.50;;
45354;SDS011;31091;48.758;9.150;2023-01-23T13:31:58;18.17;;;9.77;;
45354;SDS011;31091;48.758;9.150;2023-01-23T13:40:15;15.05;;;8.63;;
45354;SDS011;31091;48.758;9.150;2023-01-23T13:43:19;16.98;;;9.25;;
45354;SDS011;31091;48.758;9.150;2023-01-23T13:46:07;18.88;;;9.45;;
45354;SDS011;31091;48.758;9.150;2023-01-23T13:48:59;16.25;;;8.57;;
45354;SDS011;31091;48.758;9.150;2023-01-23T13:52:12;17.13;;;9.70;;
45354;SDS011;31091;48.758;9.150;2023-01-23T13:55:17;17.20;;;9.00;;
45354;SDS011;31091;48.758;9.150;2023-01-23T13:58:23;16.48;;;8.55;;
45354;SDS011;31091;48.758;9.150;2023-01-23T14:01:13;17.65;;;9.52;;
45354;SDS011;31091;48.758;9.150;2023-01-23T14:04:18;15.70;;;9.05;;
45354;SDS011;31091;48.758;9.150;2023-01-23T14:07:33;16.55;;;8.93;;
45354;SDS011;31091;48.758;9.150;2023-01-23T14:10:35;18.80;;;9.48;;
45354;SDS011;31091;48.758;9.150;2023-01-23T14:13:20;16.83;;;9.85;;
45354;SDS011;31091;48.758;9.150;2023-01-23T14:16:08;16.10;;;9.10;;
45354;SDS011;31091;48.758;9.150;2023-01-23T14:18:57;15.65;;;8.68;;
45354;SDS011;31091;48.758;9.150;2023-01-23T14:21:48;16.23;;;9.13;;
45354;SDS011;31091;48.758;9.150;2023-01-23T14:24:46;17.30;;;9.95;;
45354;SDS011;31091;48.758;9.150;2023-01-23T14:27:32;15.90;;;8.68;;
45354;SDS011;31091;48.758;9.150;2023-01-23T14:30:18;15.88;;;9.52;;
45354;SDS011;31091;48.758;9.150;2023-01-23T14:33:15;17.35;;;9.48;;
45354;SDS011;31091;48.758;9.150;2023-01-23T14:36:00;18.10;;;9.55;;
45354;SDS011;31091;48.758;9.150;2023-01-23T14:38:46;18.50;;;9.75;;
45354;SDS011;31091;48.758;9.150;2023-01-23T14:41:33;16.70;;;9.45;;
45354;SDS011;31091;48.758;9.150;2023-01-23T14:44:20;14.45;;;8.60;;
45354;SDS011;31091;48.758;9.150;2023-01-23T14:47:09;17.77;;;9.35;;
45354;SDS011;31091;48.758;9.150;2023-01-23T14:49:55;17.40;;;9.50;;
45354;SDS011;31091;48.758;9.150;2023-01-23T14:52:41;16.15;;;8.60;;
45354;SDS011;31091;48.758;9.150;2023-01-23T14:55:28;18.67;;;8.85;;
45354;SDS011;31091;48.758;9.150;2023-01-23T14:58:17;16.10;;;8.93;;
45354;SDS011;31091;48.758;9.150;2023-01-23T15:01:04;16.52;;;8.35;;
45354;SDS011;31091;48.758;9.150;2023-01-23T15:03:57;15.88;;;8.88;;
45354;SDS011;31091;48.758;9.150;2023-01-23T15:06:42;17.23;;;9.68;;
45354;SDS011;31091;48.758;9.150;2023-01-23T15:09:35;14.73;;;8.70;;
45354;SDS011;31091;48.758;9.150;2023-01-23T15:12:25;16.60;;;8.27;;
45354;SDS011;31091;48.758;9.150;2023-01-23T15:15:18;14.25;;;8.63;;
45354;SDS011;31091;48.758;9.150;2023-01-23T15:18:04;15.57;;;9.07;;
45354;SDS011;31091;48.758;9.150;2023-01-23T15:21:01;17.08;;;9.73;;
45354;SDS011;31091;48.758;9.150;2023-01-23T15:24:02;17.10;;;9.13;;
45354;SDS011;31091;48.758;9.150;2023-01-23T15:26:56;15.25;;;9.15;;
45354;SDS011;31091;48.758;9.150;2023-01-23T15:29:41;13.50;;;7.72;;
45354;SDS011;31091;48.758;9.150;2023-01-23T15:32:28;14.52;;;8.32;;
45354;SDS011;31091;48.758;9.150;2023-01-23T15:35:16;14.98;;;8.45;;
45354;SDS011;31091;48.758;9.150;2023-01-23T15:38:02;14.95;;;8.50;;
45354;SDS011;31091;48.758;9.150;2023-01-23T15:40:49;17.13;;;9.90;;
45354;SDS011;31091;48.758;9.150;2023-01-23T15:43:34;17.35;;;10.98;;
45354;SDS011;31091;48.758;9.150;2023-01-23T15:46:20;17.35;;;10.65;;
45354;SDS011;31091;48.758;9.150;2023-01-23T15:49:05;15.70;;;9.75;;
45354;SDS011;31091;48.758;9.150;2023-01-23T15:51:50;15.52;;;8.82;;
45354;SDS011;31091;48.758;9.150;2023-01-23T15:54:40;17.08;;;9.80;;
45354;SDS011;31091;48.758;9.150;2023-01-23T15:57:26;16.85;;;10.40;;
45354;SDS011;31091;48.758;9.150;2023-01-23T16:00:15;14.70;;;8.65;;
45354;SDS011;31091;48.758;9.150;2023-01-23T16:03:00;16.35;;;9.45;;
45354;SDS011;31091;48.758;9.150;2023-01-23T16:05:46;17.40;;;9.43;;
45354;SDS011;31091;48.758;9.150;2023-01-23T16:08:31;17.60;;;9.55;;
45354;SDS011;31091;48.758;9.150;2023-01-23T16:11:17;16.35;;;8.73;;
45354;SDS011;31091;48.758;9.150;2023-01-23T16:14:02;15.25;;;8.93;;
45354;SDS011;31091;48.758;9.150;2023-01-23T16:16:47;15.10;;;8.68;;
45354;SDS011;31091;48.758;9.150;2023-01-23T16:19:32;18.30;;;10.20;;
45354;SDS011;31091;48.758;9.150;2023-01-23T16:22:25;16.73;;;9.68;;
45354;SDS011;31091;48.758;9.150;2023-01-23T16:25:21;17.48;;;9.48;;
45354;SDS011;31091;48.758;9.150;2023-01-23T16:28:10;20.80;;;9.10;;
45354;SDS011;31091;48.758;9.150;2023-01-23T16:30:57;16.27;;;9.65;;
45354;SDS011;31091;48.758;9.150;2023-01-23T16:33:42;17.23;;;9.57;;
45354;SDS011;31091;48.758;9.150;2023-01-23T16:36:27;13.82;;;8.68;;
45354;SDS011;31091;48.758;9.150;2023-01-23T16:39:17;19.67;;;9.77;;
45354;SDS011;31091;48.758;9.150;2023-01-23T16:44:49;17.77;;;10.38;;
45354;SDS011;31091;48.758;9.150;2023-01-23T16:47:34;17.63;;;10.43;;
45354;SDS011;31091;48.758;9.150;2023-01-23T16:50:41;16.70;;;10.00;;
45354;SDS011;31091;48.758;9.150;2023-01-23T16:53:26;19.08;;;10.50;;
45354;SDS011;31091;48.758;9.150;2023-01-23T16:56:22;17.58;;;9.20;;
45354;SDS011;31091;48.758;9.150;2023-01-23T16:59:15;18.42;;;10.10;;
45354;SDS011;31091;48.758;9.150;2023-01-23T17:02:06;13.07;;;8.40;;
45354;SDS011;31091;48.758;9.150;2023-01-23T17:04:57;17.38;;;10.85;;
45354;SDS011;31091;48.758;9.150;2023-01-23T17:07:42;18.98;;;10.43;;
45354;SDS011;31091;48.758;9.150;2023-01-23T17:10:27;22.52;;;10.50;;
45354;SDS011;31091;48.758;9.150;2023-01-23T17:13:13;18.80;;;10.90;;
45354;SDS011;31091;48.758;9.150;2023-01-23T17:15:59;20.90;;;11.43;;
45354;SDS011;31091;48.758;9.150;2023-01-23T17:18:45;18.58;;;10.65;;
45354;SDS011;31091;48.758;9.150;2023-01-23T17:21:31;16.25;;;11.25;;
45354;SDS011;31091;48.758;9.150;2023-01-23T17:24:17;17.27;;;9.73;;
45354;SDS011;31091;48.758;9.150;2023-01-23T17:27:03;17.88;;;10.50;;
45354;SDS011;31091;48.758;9.150;2023-01-23T17:29:48;20.55;;;12.48;;
45354;SDS011;31091;48.758;9.150;2023-01-23T17:32:33;21.50;;;9.65;;
45354;SDS011;31091;48.758;9.150;2023-01-23T17:35:20;17.65;;;9.82;;
45354;SDS011;31091;48.758;9.150;2023-01-23T17:38:15;17.35;;;10.80;;
45354;SDS011;31091;48.758;9.150;2023-01-23T17:41:00;21.35;;;11.20;;
45354;SDS011;31091;48.758;9.150;2023-01-23T17:43:46;17.13;;;9.65;;
45354;SDS011;31091;48.758;9.150;2023-01-23T17:46:32;19.40;;;10.25;;
45354;SDS011;31091;48.758;9.150;2023-01-23T17:52:09;17.42;;;9.90;;
45354;SDS011;31091;48.758;9.150;2023-01-23T17:54:55;19.58;;;10.90;;
45354;SDS011;31091;48.758;9.150;2023-01-23T17:57:40;15.43;;;9.13;;
45354;SDS011;31091;48.758;9.150;2023-01-23T18:00:25;19.25;;;10.45;;
45354;SDS011;31091;48.758;9.150;2023-01-23T18:03:12;17.48;;;9.10;;
45354;SDS011;31091;48.758;9.150;2023-01-23T18:05:58;17.02;;;10.43;;